sensor_id;sensor_type;location;lat;lon;timestamp;P1;durP1;ratioP1;P2;durP2;ratioP2
67768;SDS011;54569;52.018;5.584;2024-03-08T00:02:03;27.25;;;15.82;;
67768;SDS011;54569;52.018;5.584;2024-03-08T00:04:29;24.45;;;15.00;;
67768;SDS011;54569;52.018;5.584;2024-03-08T00:06:55;26.05;;;15.18;;
67768;SDS011;54569;52.018;5.584;2024-03-08T00:09:20;25.38;;;16.40;;
67768;SDS011;54569;52.018;5.584;2024-03-08T00:11:46;26.70;;;15.48;;
67768;SDS011;54569;52.018;5.584;2024-03-08T00:14:15;27.10;;;16.45;;
67768;SDS011;54569;52.018;5.584;2024-03-08T00:16:41;26.83;;;17.25;;
67768;SDS011;54569;52.018;5.584;2024-03-08T00:19:09;26.60;;;15.18;;
67768;SDS011;54569;52.018;5.584;2024-03-08T00:21:35;26.05;;;16.23;;
67768;SDS011;54569;52.018;5.584;2024-03-08T00:24:01;25.02;;;16.20;;
67768;SDS011;54569;52.018;5.584;2024-03-08T00:26:27;26.55;;;16.13;;
67768;SDS011;54569;52.018;5.584;2024-03-08T00:28:53;29.42;;;17.55;;
67768;SDS011;54569;52.018;5.584;2024-03-08T00:31:19;28.85;;;16.52;;
67768;SDS011;54569;52.018;5.584;2024-03-08T00:33:45;24.52;;;16.20;;
67768;SDS011;54569;52.018;5.584;2024-03-08T00:36:11;25.63;;;15.77;;
67768;SDS011;54569;52.018;5.584;2024-03-08T00:38:37;27.55;;;16.52;;
67768;SDS011;54569;52.018;5.584;2024-03-08T00:41:03;26.80;;;16.88;;
67768;SDS011;54569;52.018;5.584;2024-03-08T00:43:28;27.83;;;16.67;;
67768;SDS011;54569;52.018;5.584;2024-03-08T00:45:55;27.73;;;16.05;;
67768;SDS011;54569;52.018;5.584;2024-03-08T00:48:23;24.90;;;14.65;;
67768;SDS011;54569;52.018;5.584;2024-03-08T00:50:49;25.42;;;15.75;;
67768;SDS011;54569;52.018;5.584;2024-03-08T00:53:15;27.83;;;15.60;;
67768;SDS011;54569;52.018;5.584;2024-03-08T00:55:41;25.33;;;15.68;;
67768;SDS011;54569;52.018;5.584;2024-03-08T00:58:06;28.75;;;16.13;;
67768;SDS011;54569;52.018;5.584;2024-03-08T01:00:34;26.48;;;15.48;;
67768;SDS011;54569;52.018;5.584;2024-03-08T01:03:00;29.42;;;16.42;;
67768;SDS011;54569;52.018;5.584;2024-03-08T01:05:28;24.73;;;15.35;;
67768;SDS011;54569;52.018;5.584;2024-03-08T01:07:54;26.13;;;15.20;;
67768;SDS011;54569;52.018;5.584;2024-03-08T01:10:20;28.13;;;16.15;;
67768;SDS011;54569;52.018;5.584;2024-03-08T01:12:45;26.80;;;16.38;;
67768;SDS011;54569;52.018;5.584;2024-03-08T01:15:11;24.80;;;15.55;;
67768;SDS011;54569;52.018;5.584;2024-03-08T01:17:37;26.77;;;15.35;;
67768;SDS011;54569;52.018;5.584;2024-03-08T01:20:04;27.75;;;16.65;;
67768;SDS011;54569;52.018;5.584;2024-03-08T01:22:30;26.48;;;16.35;;
67768;SDS011;54569;52.018;5.584;2024-03-08T01:24:56;24.30;;;15.93;;
67768;SDS011;54569;52.018;5.584;2024-03-08T01:27:22;29.23;;;15.70;;
67768;SDS011;54569;52.018;5.584;2024-03-08T01:29:50;26.13;;;16.30;;
67768;SDS011;54569;52.018;5.584;2024-03-08T01:32:16;26.33;;;16.20;;
67768;SDS011;54569;52.018;5.584;2024-03-08T01:34:42;27.10;;;16.33;;
67768;SDS011;54569;52.018;5.584;2024-03-08T01:37:10;26.92;;;15.43;;
67768;SDS011;54569;52.018;5.584;2024-03-08T01:39:35;27.42;;;16.30;;
67768;SDS011;54569;52.018;5.584;2024-03-08T01:42:01;23.67;;;14.80;;
67768;SDS011;54569;52.018;5.584;2024-03-08T01:44:27;27.98;;;16.55;;
67768;SDS011;54569;52.018;5.584;2024-03-08T01:46:53;29.83;;;16.33;;
67768;SDS011;54569;52.018;5.584;2024-03-08T01:49:20;25.75;;;15.80;;
67768;SDS011;54569;52.018;5.584;2024-03-08T01:51:47;25.25;;;16.73;;
67768;SDS011;54569;52.018;5.584;2024-03-08T01:54:15;25.50;;;15.75;;
67768;SDS011;54569;52.018;5.584;2024-03-08T01:56:43;22.02;;;14.85;;
67768;SDS011;54569;52.018;5.584;2024-03-08T01:59:09;24.67;;;15.32;;
67768;SDS011;54569;52.018;5.584;2024-03-08T02:01:35;25.35;;;15.77;;
67768;SDS011;54569;52.018;5.584;2024-03-08T02:04:01;25.70;;;16.48;;
67768;SDS011;54569;52.018;5.584;2024-03-08T02:06:27;22.10;;;15.55;;
67768;SDS011;54569;52.018;5.584;2024-03-08T02:08:53;25.33;;;16.02;;
67768;SDS011;54569;52.018;5.584;2024-03-08T02:11:18;31.00;;;17.02;;
67768;SDS011;54569;52.018;5.584;2024-03-08T02:13:46;27.52;;;15.95;;
67768;SDS011;54569;52.018;5.584;2024-03-08T02:16:11;25.70;;;15.80;;
67768;SDS011;54569;52.018;5.584;2024-03-08T02:18:37;23.83;;;15.80;;
67768;SDS011;54569;52.018;5.584;2024-03-08T02:21:04;24.77;;;16.20;;
67768;SDS011;54569;52.018;5.584;2024-03-08T02:23:32;25.73;;;16.08;;
67768;SDS011;54569;52.018;5.584;2024-03-08T02:25:58;25.13;;;16.38;;
67768;SDS011;54569;52.018;5.584;2024-03-08T02:28:24;23.45;;;15.60;;
67768;SDS011;54569;52.018;5.584;2024-03-08T02:30:50;23.83;;;16.10;;
67768;SDS011;54569;52.018;5.584;2024-03-08T02:33:20;24.00;;;16.08;;
67768;SDS011;54569;52.018;5.584;2024-03-08T02:35:46;25.25;;;16.33;;
67768;SDS011;54569;52.018;5.584;2024-03-08T02:38:16;24.17;;;16.52;;
67768;SDS011;54569;52.018;5.584;2024-03-08T02:40:46;26.20;;;16.13;;
67768;SDS011;54569;52.018;5.584;2024-03-08T02:43:13;25.02;;;15.30;;
67768;SDS011;54569;52.018;5.584;2024-03-08T02:45:45;30.17;;;17.23;;
67768;SDS011;54569;52.018;5.584;2024-03-08T02:48:12;28.73;;;16.27;;
67768;SDS011;54569;52.018;5.584;2024-03-08T02:50:39;24.95;;;17.15;;
67768;SDS011;54569;52.018;5.584;2024-03-08T02:53:05;26.20;;;17.08;;
67768;SDS011;54569;52.018;5.584;2024-03-08T02:55:31;25.73;;;16.13;;
67768;SDS011;54569;52.018;5.584;2024-03-08T02:58:01;25.00;;;16.23;;
67768;SDS011;54569;52.018;5.584;2024-03-08T03:00:28;24.85;;;16.65;;
67768;SDS011;54569;52.018;5.584;2024-03-08T03:02:59;25.95;;;15.82;;
67768;SDS011;54569;52.018;5.584;2024-03-08T03:05:28;27.27;;;16.85;;
67768;SDS011;54569;52.018;5.584;2024-03-08T03:07:57;26.50;;;17.08;;
67768;SDS011;54569;52.018;5.584;2024-03-08T03:10:26;26.65;;;16.38;;
67768;SDS011;54569;52.018;5.584;2024-03-08T03:12:52;26.52;;;16.67;;
67768;SDS011;54569;52.018;5.584;2024-03-08T03:15:18;25.80;;;17.13;;
67768;SDS011;54569;52.018;5.584;2024-03-08T03:17:47;28.45;;;16.30;;
67768;SDS011;54569;52.018;5.584;2024-03-08T03:20:14;23.92;;;16.63;;
67768;SDS011;54569;52.018;5.584;2024-03-08T03:22:40;24.45;;;16.65;;
67768;SDS011;54569;52.018;5.584;2024-03-08T03:25:07;25.42;;;17.13;;
67768;SDS011;54569;52.018;5.584;2024-03-08T03:27:34;24.73;;;16.77;;
67768;SDS011;54569;52.018;5.584;2024-03-08T03:30:01;23.40;;;16.85;;
67768;SDS011;54569;52.018;5.584;2024-03-08T03:32:46;24.38;;;16.60;;
67768;SDS011;54569;52.018;5.584;2024-03-08T03:35:13;24.15;;;16.65;;
67768;SDS011;54569;52.018;5.584;2024-03-08T03:37:40;22.63;;;16.13;;
67768;SDS011;54569;52.018;5.584;2024-03-08T03:40:08;26.30;;;16.98;;
67768;SDS011;54569;52.018;5.584;2024-03-08T03:42:34;29.05;;;17.75;;
67768;SDS011;54569;52.018;5.584;2024-03-08T03:45:04;23.38;;;16.02;;
67768;SDS011;54569;52.018;5.584;2024-03-08T03:47:31;26.27;;;16.95;;
67768;SDS011;54569;52.018;5.584;2024-03-08T03:49:56;26.75;;;16.80;;
67768;SDS011;54569;52.018;5.584;2024-03-08T03:52:27;23.75;;;17.15;;
67768;SDS011;54569;52.018;5.584;2024-03-08T03:54:52;27.15;;;18.02;;
67768;SDS011;54569;52.018;5.584;2024-03-08T03:57:18;28.20;;;17.98;;
67768;SDS011;54569;52.018;5.584;2024-03-08T03:59:45;22.90;;;16.70;;
67768;SDS011;54569;52.018;5.584;2024-03-08T04:02:12;25.77;;;17.08;;
67768;SDS011;54569;52.018;5.584;2024-03-08T04:04:38;25.88;;;16.45;;
67768;SDS011;54569;52.018;5.584;2024-03-08T04:07:04;24.88;;;16.35;;
67768;SDS011;54569;52.018;5.584;2024-03-08T04:09:30;22.05;;;16.13;;
67768;SDS011;54569;52.018;5.584;2024-03-08T04:11:55;28.70;;;18.75;;
67768;SDS011;54569;52.018;5.584;2024-03-08T04:14:22;24.52;;;17.20;;
67768;SDS011;54569;52.018;5.584;2024-03-08T04:16:48;25.60;;;17.77;;
67768;SDS011;54569;52.018;5.584;2024-03-08T04:19:14;23.13;;;16.58;;
67768;SDS011;54569;52.018;5.584;2024-03-08T04:21:40;26.92;;;17.42;;
67768;SDS011;54569;52.018;5.584;2024-03-08T04:24:07;26.65;;;17.27;;
67768;SDS011;54569;52.018;5.584;2024-03-08T04:26:34;27.33;;;17.55;;
67768;SDS011;54569;52.018;5.584;2024-03-08T04:29:00;27.63;;;17.75;;
67768;SDS011;54569;52.018;5.584;2024-03-08T04:31:26;24.88;;;16.23;;
67768;SDS011;54569;52.018;5.584;2024-03-08T04:33:52;25.17;;;17.20;;
67768;SDS011;54569;52.018;5.584;2024-03-08T04:36:18;27.92;;;18.45;;
67768;SDS011;54569;52.018;5.584;2024-03-08T04:38:45;26.98;;;17.70;;
67768;SDS011;54569;52.018;5.584;2024-03-08T04:41:11;25.30;;;17.67;;
67768;SDS011;54569;52.018;5.584;2024-03-08T04:43:36;26.13;;;17.27;;
67768;SDS011;54569;52.018;5.584;2024-03-08T04:46:03;28.02;;;17.65;;
67768;SDS011;54569;52.018;5.584;2024-03-08T04:48:29;24.52;;;17.55;;
67768;SDS011;54569;52.018;5.584;2024-03-08T04:50:55;28.33;;;18.63;;
67768;SDS011;54569;52.018;5.584;2024-03-08T04:53:21;25.58;;;17.58;;
67768;SDS011;54569;52.018;5.584;2024-03-08T04:55:47;28.20;;;18.33;;
67768;SDS011;54569;52.018;5.584;2024-03-08T04:58:13;28.88;;;17.38;;
67768;SDS011;54569;52.018;5.584;2024-03-08T05:00:38;24.13;;;16.88;;
67768;SDS011;54569;52.018;5.584;2024-03-08T05:03:04;25.25;;;16.73;;
67768;SDS011;54569;52.018;5.584;2024-03-08T05:05:30;27.13;;;17.38;;
67768;SDS011;54569;52.018;5.584;2024-03-08T05:07:56;24.15;;;17.27;;
67768;SDS011;54569;52.018;5.584;2024-03-08T05:10:22;26.77;;;17.55;;
67768;SDS011;54569;52.018;5.584;2024-03-08T05:12:48;30.00;;;18.88;;
67768;SDS011;54569;52.018;5.584;2024-03-08T05:15:14;26.13;;;17.45;;
67768;SDS011;54569;52.018;5.584;2024-03-08T05:17:40;26.50;;;18.40;;
67768;SDS011;54569;52.018;5.584;2024-03-08T05:20:07;28.70;;;17.40;;
67768;SDS011;54569;52.018;5.584;2024-03-08T05:22:33;26.75;;;17.40;;
67768;SDS011;54569;52.018;5.584;2024-03-08T05:24:59;26.85;;;17.77;;
67768;SDS011;54569;52.018;5.584;2024-03-08T05:27:25;25.85;;;16.80;;
67768;SDS011;54569;52.018;5.584;2024-03-08T05:29:53;26.88;;;18.48;;
67768;SDS011;54569;52.018;5.584;2024-03-08T05:32:19;28.75;;;17.08;;
67768;SDS011;54569;52.018;5.584;2024-03-08T05:34:45;24.85;;;16.95;;
67768;SDS011;54569;52.018;5.584;2024-03-08T05:37:11;26.23;;;18.33;;
67768;SDS011;54569;52.018;5.584;2024-03-08T05:39:36;25.88;;;16.98;;
67768;SDS011;54569;52.018;5.584;2024-03-08T05:42:02;26.88;;;17.20;;
67768;SDS011;54569;52.018;5.584;2024-03-08T05:44:29;25.33;;;16.77;;
67768;SDS011;54569;52.018;5.584;2024-03-08T05:46:56;23.45;;;16.92;;
67768;SDS011;54569;52.018;5.584;2024-03-08T05:49:22;28.05;;;18.48;;
67768;SDS011;54569;52.018;5.584;2024-03-08T05:51:48;27.38;;;17.52;;
67768;SDS011;54569;52.018;5.584;2024-03-08T05:54:14;28.60;;;18.50;;
67768;SDS011;54569;52.018;5.584;2024-03-08T05:56:39;27.48;;;16.75;;
67768;SDS011;54569;52.018;5.584;2024-03-08T05:59:09;28.50;;;18.50;;
67768;SDS011;54569;52.018;5.584;2024-03-08T06:01:36;25.90;;;17.55;;
67768;SDS011;54569;52.018;5.584;2024-03-08T06:04:02;27.13;;;17.35;;
67768;SDS011;54569;52.018;5.584;2024-03-08T06:06:29;26.27;;;16.98;;
67768;SDS011;54569;52.018;5.584;2024-03-08T06:08:55;26.80;;;16.48;;
67768;SDS011;54569;52.018;5.584;2024-03-08T06:11:24;27.40;;;17.88;;
67768;SDS011;54569;52.018;5.584;2024-03-08T06:13:53;27.83;;;18.58;;
67768;SDS011;54569;52.018;5.584;2024-03-08T06:16:25;28.98;;;18.15;;
67768;SDS011;54569;52.018;5.584;2024-03-08T06:18:57;27.83;;;18.08;;
67768;SDS011;54569;52.018;5.584;2024-03-08T06:21:25;27.63;;;18.05;;
67768;SDS011;54569;52.018;5.584;2024-03-08T06:23:54;25.58;;;17.00;;
67768;SDS011;54569;52.018;5.584;2024-03-08T06:26:22;25.77;;;17.27;;
67768;SDS011;54569;52.018;5.584;2024-03-08T06:28:49;26.60;;;17.00;;
67768;SDS011;54569;52.018;5.584;2024-03-08T06:31:16;30.88;;;19.30;;
67768;SDS011;54569;52.018;5.584;2024-03-08T06:33:42;30.60;;;18.50;;
67768;SDS011;54569;52.018;5.584;2024-03-08T06:36:08;29.85;;;18.08;;
67768;SDS011;54569;52.018;5.584;2024-03-08T06:38:34;27.40;;;18.40;;
67768;SDS011;54569;52.018;5.584;2024-03-08T06:41:00;27.45;;;17.23;;
67768;SDS011;54569;52.018;5.584;2024-03-08T06:43:29;30.27;;;18.65;;
67768;SDS011;54569;52.018;5.584;2024-03-08T06:45:59;30.40;;;18.25;;
67768;SDS011;54569;52.018;5.584;2024-03-08T06:48:25;28.58;;;19.00;;
67768;SDS011;54569;52.018;5.584;2024-03-08T06:50:51;25.27;;;18.25;;
67768;SDS011;54569;52.018;5.584;2024-03-08T06:53:16;26.33;;;18.10;;
67768;SDS011;54569;52.018;5.584;2024-03-08T06:55:45;28.80;;;19.17;;
67768;SDS011;54569;52.018;5.584;2024-03-08T06:58:11;27.13;;;17.30;;
67768;SDS011;54569;52.018;5.584;2024-03-08T07:00:37;26.83;;;19.00;;
67768;SDS011;54569;52.018;5.584;2024-03-08T07:03:03;26.50;;;18.23;;
67768;SDS011;54569;52.018;5.584;2024-03-08T07:05:32;28.10;;;18.10;;
67768;SDS011;54569;52.018;5.584;2024-03-08T07:07:58;26.67;;;18.23;;
67768;SDS011;54569;52.018;5.584;2024-03-08T07:10:24;27.17;;;18.50;;
67768;SDS011;54569;52.018;5.584;2024-03-08T07:12:53;27.92;;;18.73;;
67768;SDS011;54569;52.018;5.584;2024-03-08T07:15:20;28.35;;;18.33;;
67768;SDS011;54569;52.018;5.584;2024-03-08T07:17:46;26.48;;;18.05;;
67768;SDS011;54569;52.018;5.584;2024-03-08T07:20:15;25.85;;;17.83;;
67768;SDS011;54569;52.018;5.584;2024-03-08T07:22:44;23.63;;;16.60;;
67768;SDS011;54569;52.018;5.584;2024-03-08T07:25:13;19.98;;;16.15;;
67768;SDS011;54569;52.018;5.584;2024-03-08T07:27:53;24.15;;;17.45;;
67768;SDS011;54569;52.018;5.584;2024-03-08T07:30:20;22.63;;;15.65;;
67768;SDS011;54569;52.018;5.584;2024-03-08T07:33:05;21.23;;;15.90;;
67768;SDS011;54569;52.018;5.584;2024-03-08T07:35:37;23.52;;;16.60;;
67768;SDS011;54569;52.018;5.584;2024-03-08T07:38:07;22.35;;;17.15;;
67768;SDS011;54569;52.018;5.584;2024-03-08T07:40:35;20.05;;;15.73;;
67768;SDS011;54569;52.018;5.584;2024-03-08T07:43:04;22.33;;;16.00;;
67768;SDS011;54569;52.018;5.584;2024-03-08T07:45:30;21.83;;;16.33;;
67768;SDS011;54569;52.018;5.584;2024-03-08T07:47:56;20.20;;;16.27;;
67768;SDS011;54569;52.018;5.584;2024-03-08T07:50:22;20.88;;;17.10;;
67768;SDS011;54569;52.018;5.584;2024-03-08T07:52:48;22.45;;;16.98;;
67768;SDS011;54569;52.018;5.584;2024-03-08T07:55:14;22.58;;;15.80;;
67768;SDS011;54569;52.018;5.584;2024-03-08T07:57:40;18.85;;;16.50;;
67768;SDS011;54569;52.018;5.584;2024-03-08T08:00:07;20.48;;;16.67;;
67768;SDS011;54569;52.018;5.584;2024-03-08T08:02:34;20.58;;;16.70;;
67768;SDS011;54569;52.018;5.584;2024-03-08T08:05:01;18.20;;;16.10;;
67768;SDS011;54569;52.018;5.584;2024-03-08T08:07:27;20.05;;;16.77;;
67768;SDS011;54569;52.018;5.584;2024-03-08T08:09:53;18.42;;;15.68;;
67768;SDS011;54569;52.018;5.584;2024-03-08T08:12:19;20.75;;;15.93;;
67768;SDS011;54569;52.018;5.584;2024-03-08T08:14:46;20.15;;;17.70;;
67768;SDS011;54569;52.018;5.584;2024-03-08T08:17:12;20.70;;;17.90;;
67768;SDS011;54569;52.018;5.584;2024-03-08T08:19:40;21.25;;;17.35;;
67768;SDS011;54569;52.018;5.584;2024-03-08T08:22:06;19.52;;;17.20;;
67768;SDS011;54569;52.018;5.584;2024-03-08T08:24:34;19.80;;;17.70;;
67768;SDS011;54569;52.018;5.584;2024-03-08T08:27:02;18.48;;;16.58;;
67768;SDS011;54569;52.018;5.584;2024-03-08T08:29:28;19.98;;;17.65;;
67768;SDS011;54569;52.018;5.584;2024-03-08T08:31:57;19.23;;;17.30;;
67768;SDS011;54569;52.018;5.584;2024-03-08T08:34:24;20.40;;;18.35;;
67768;SDS011;54569;52.018;5.584;2024-03-08T08:36:51;18.88;;;16.75;;
67768;SDS011;54569;52.018;5.584;2024-03-08T08:39:18;19.05;;;17.02;;
67768;SDS011;54569;52.018;5.584;2024-03-08T08:41:44;20.25;;;18.08;;
67768;SDS011;54569;52.018;5.584;2024-03-08T08:44:10;19.52;;;17.60;;
67768;SDS011;54569;52.018;5.584;2024-03-08T08:46:37;19.38;;;17.27;;
67768;SDS011;54569;52.018;5.584;2024-03-08T08:49:04;20.08;;;17.88;;
67768;SDS011;54569;52.018;5.584;2024-03-08T08:51:31;21.60;;;18.30;;
67768;SDS011;54569;52.018;5.584;2024-03-08T08:53:58;20.02;;;18.13;;
67768;SDS011;54569;52.018;5.584;2024-03-08T08:56:24;19.55;;;17.10;;
67768;SDS011;54569;52.018;5.584;2024-03-08T08:58:51;19.45;;;17.55;;
67768;SDS011;54569;52.018;5.584;2024-03-08T09:01:20;20.13;;;18.02;;
67768;SDS011;54569;52.018;5.584;2024-03-08T09:03:46;19.58;;;17.55;;
67768;SDS011;54569;52.018;5.584;2024-03-08T09:06:12;20.30;;;18.25;;
67768;SDS011;54569;52.018;5.584;2024-03-08T09:08:41;20.60;;;18.60;;
67768;SDS011;54569;52.018;5.584;2024-03-08T09:11:07;19.90;;;17.80;;
67768;SDS011;54569;52.018;5.584;2024-03-08T09:13:33;19.88;;;17.30;;
67768;SDS011;54569;52.018;5.584;2024-03-08T09:15:59;20.25;;;18.10;;
67768;SDS011;54569;52.018;5.584;2024-03-08T09:18:25;19.30;;;17.40;;
67768;SDS011;54569;52.018;5.584;2024-03-08T09:20:51;18.55;;;16.73;;
67768;SDS011;54569;52.018;5.584;2024-03-08T09:23:22;18.08;;;16.20;;
67768;SDS011;54569;52.018;5.584;2024-03-08T09:25:48;19.90;;;17.85;;
67768;SDS011;54569;52.018;5.584;2024-03-08T09:28:14;18.63;;;16.67;;
67768;SDS011;54569;52.018;5.584;2024-03-08T09:30:39;19.63;;;17.58;;
67768;SDS011;54569;52.018;5.584;2024-03-08T09:33:05;20.63;;;18.52;;
67768;SDS011;54569;52.018;5.584;2024-03-08T09:35:31;20.65;;;18.65;;
67768;SDS011;54569;52.018;5.584;2024-03-08T09:37:57;20.02;;;17.92;;
67768;SDS011;54569;52.018;5.584;2024-03-08T09:40:23;18.58;;;16.75;;
67768;SDS011;54569;52.018;5.584;2024-03-08T09:42:50;19.25;;;17.38;;
67768;SDS011;54569;52.018;5.584;2024-03-08T09:45:17;19.13;;;17.23;;
67768;SDS011;54569;52.018;5.584;2024-03-08T09:47:50;20.67;;;18.55;;
67768;SDS011;54569;52.018;5.584;2024-03-08T09:50:16;19.48;;;17.67;;
67768;SDS011;54569;52.018;5.584;2024-03-08T09:52:43;19.92;;;17.90;;
67768;SDS011;54569;52.018;5.584;2024-03-08T09:55:12;19.92;;;17.85;;
67768;SDS011;54569;52.018;5.584;2024-03-08T09:57:41;19.10;;;17.25;;
67768;SDS011;54569;52.018;5.584;2024-03-08T10:00:28;19.10;;;17.17;;
67768;SDS011;54569;52.018;5.584;2024-03-08T10:03:00;19.70;;;17.90;;
67768;SDS011;54569;52.018;5.584;2024-03-08T10:05:26;20.30;;;17.50;;
67768;SDS011;54569;52.018;5.584;2024-03-08T10:07:52;18.90;;;17.15;;
67768;SDS011;54569;52.018;5.584;2024-03-08T10:10:18;19.00;;;17.10;;
67768;SDS011;54569;52.018;5.584;2024-03-08T10:12:44;18.13;;;16.40;;
67768;SDS011;54569;52.018;5.584;2024-03-08T10:15:11;18.70;;;16.77;;
67768;SDS011;54569;52.018;5.584;2024-03-08T10:17:42;19.35;;;17.55;;
67768;SDS011;54569;52.018;5.584;2024-03-08T10:20:17;19.23;;;17.40;;
67768;SDS011;54569;52.018;5.584;2024-03-08T10:22:44;18.88;;;17.02;;
67768;SDS011;54569;52.018;5.584;2024-03-08T10:25:10;19.95;;;17.95;;
67768;SDS011;54569;52.018;5.584;2024-03-08T10:27:40;17.98;;;16.38;;
67768;SDS011;54569;52.018;5.584;2024-03-08T10:30:08;17.65;;;15.93;;
67768;SDS011;54569;52.018;5.584;2024-03-08T10:32:39;17.98;;;16.23;;
67768;SDS011;54569;52.018;5.584;2024-03-08T10:35:06;18.38;;;16.73;;
67768;SDS011;54569;52.018;5.584;2024-03-08T10:37:44;18.77;;;16.98;;
67768;SDS011;54569;52.018;5.584;2024-03-08T10:40:18;18.08;;;16.48;;
67768;SDS011;54569;52.018;5.584;2024-03-08T10:42:52;18.85;;;17.15;;
67768;SDS011;54569;52.018;5.584;2024-03-08T10:48:00;18.02;;;16.17;;
67768;SDS011;54569;52.018;5.584;2024-03-08T10:50:49;17.13;;;15.32;;
67768;SDS011;54569;52.018;5.584;2024-03-08T10:53:18;16.55;;;14.85;;
67768;SDS011;54569;52.018;5.584;2024-03-08T10:55:47;17.42;;;15.73;;
67768;SDS011;54569;52.018;5.584;2024-03-08T10:58:16;16.33;;;14.77;;
67768;SDS011;54569;52.018;5.584;2024-03-08T11:00:43;18.67;;;15.77;;
67768;SDS011;54569;52.018;5.584;2024-03-08T11:03:21;17.08;;;15.48;;
67768;SDS011;54569;52.018;5.584;2024-03-08T11:14:45;16.88;;;15.25;;
67768;SDS011;54569;52.018;5.584;2024-03-08T11:17:14;17.52;;;15.93;;
67768;SDS011;54569;52.018;5.584;2024-03-08T11:19:46;15.93;;;14.32;;
67768;SDS011;54569;52.018;5.584;2024-03-08T11:22:23;15.85;;;14.35;;
67768;SDS011;54569;52.018;5.584;2024-03-08T11:24:52;15.63;;;14.15;;
67768;SDS011;54569;52.018;5.584;2024-03-08T11:27:19;15.27;;;13.88;;
67768;SDS011;54569;52.018;5.584;2024-03-08T11:30:01;15.38;;;13.98;;
67768;SDS011;54569;52.018;5.584;2024-03-08T11:32:37;15.70;;;14.18;;
67768;SDS011;54569;52.018;5.584;2024-03-08T11:35:07;15.15;;;13.75;;
67768;SDS011;54569;52.018;5.584;2024-03-08T11:37:44;16.52;;;14.73;;
67768;SDS011;54569;52.018;5.584;2024-03-08T11:40:13;15.52;;;14.13;;
67768;SDS011;54569;52.018;5.584;2024-03-08T11:42:47;15.68;;;14.27;;
67768;SDS011;54569;52.018;5.584;2024-03-08T11:45:14;15.70;;;14.27;;
67768;SDS011;54569;52.018;5.584;2024-03-08T11:47:45;16.20;;;14.63;;
67768;SDS011;54569;52.018;5.584;2024-03-08T11:50:11;14.98;;;13.57;;
67768;SDS011;54569;52.018;5.584;2024-03-08T11:52:38;16.05;;;14.55;;
67768;SDS011;54569;52.018;5.584;2024-03-08T11:55:05;14.95;;;13.55;;
67768;SDS011;54569;52.018;5.584;2024-03-08T11:57:31;14.55;;;13.25;;
67768;SDS011;54569;52.018;5.584;2024-03-08T11:59:58;15.45;;;13.88;;
67768;SDS011;54569;52.018;5.584;2024-03-08T12:02:33;14.63;;;13.23;;
67768;SDS011;54569;52.018;5.584;2024-03-08T12:05:07;16.15;;;14.65;;
67768;SDS011;54569;52.018;5.584;2024-03-08T12:07:35;16.25;;;14.75;;
67768;SDS011;54569;52.018;5.584;2024-03-08T12:13:00;16.27;;;14.73;;
67768;SDS011;54569;52.018;5.584;2024-03-08T12:15:26;16.15;;;14.40;;
67768;SDS011;54569;52.018;5.584;2024-03-08T12:17:54;15.55;;;14.13;;
67768;SDS011;54569;52.018;5.584;2024-03-08T12:20:25;16.02;;;14.43;;
67768;SDS011;54569;52.018;5.584;2024-03-08T12:22:52;16.63;;;14.27;;
67768;SDS011;54569;52.018;5.584;2024-03-08T12:25:21;15.20;;;13.70;;
67768;SDS011;54569;52.018;5.584;2024-03-08T12:27:47;16.15;;;14.63;;
67768;SDS011;54569;52.018;5.584;2024-03-08T12:30:17;16.65;;;14.88;;
67768;SDS011;54569;52.018;5.584;2024-03-08T12:32:58;15.90;;;14.30;;
67768;SDS011;54569;52.018;5.584;2024-03-08T12:35:28;15.88;;;14.27;;
67768;SDS011;54569;52.018;5.584;2024-03-08T12:37:56;15.63;;;14.07;;
67768;SDS011;54569;52.018;5.584;2024-03-08T12:40:26;15.50;;;13.95;;
67768;SDS011;54569;52.018;5.584;2024-03-08T12:42:54;17.02;;;14.20;;
67768;SDS011;54569;52.018;5.584;2024-03-08T12:45:21;16.17;;;14.43;;
67768;SDS011;54569;52.018;5.584;2024-03-08T12:47:53;15.48;;;13.90;;
67768;SDS011;54569;52.018;5.584;2024-03-08T12:50:20;17.75;;;14.25;;
67768;SDS011;54569;52.018;5.584;2024-03-08T12:52:47;16.27;;;14.05;;
67768;SDS011;54569;52.018;5.584;2024-03-08T12:55:14;19.10;;;15.95;;
67768;SDS011;54569;52.018;5.584;2024-03-08T12:57:41;17.40;;;14.88;;
67768;SDS011;54569;52.018;5.584;2024-03-08T13:00:08;16.40;;;14.32;;
67768;SDS011;54569;52.018;5.584;2024-03-08T13:02:47;17.98;;;14.70;;
67768;SDS011;54569;52.018;5.584;2024-03-08T13:05:13;17.05;;;15.25;;
67768;SDS011;54569;52.018;5.584;2024-03-08T13:07:40;19.40;;;15.20;;
67768;SDS011;54569;52.018;5.584;2024-03-08T13:10:11;20.80;;;15.57;;
67768;SDS011;54569;52.018;5.584;2024-03-08T13:12:44;18.52;;;15.25;;
67768;SDS011;54569;52.018;5.584;2024-03-08T13:15:10;20.38;;;15.90;;
67768;SDS011;54569;52.018;5.584;2024-03-08T13:17:48;18.58;;;14.88;;
67768;SDS011;54569;52.018;5.584;2024-03-08T13:20:14;16.30;;;14.02;;
67768;SDS011;54569;52.018;5.584;2024-03-08T13:22:47;18.73;;;14.75;;
67768;SDS011;54569;52.018;5.584;2024-03-08T13:25:13;17.15;;;13.75;;
67768;SDS011;54569;52.018;5.584;2024-03-08T13:27:40;18.60;;;15.35;;
67768;SDS011;54569;52.018;5.584;2024-03-08T13:30:08;18.35;;;15.65;;
67768;SDS011;54569;52.018;5.584;2024-03-08T13:32:39;17.52;;;14.35;;
67768;SDS011;54569;52.018;5.584;2024-03-08T13:35:05;18.05;;;14.43;;
67768;SDS011;54569;52.018;5.584;2024-03-08T13:37:40;19.63;;;15.48;;
67768;SDS011;54569;52.018;5.584;2024-03-08T13:40:07;17.65;;;15.75;;
67768;SDS011;54569;52.018;5.584;2024-03-08T13:42:42;19.95;;;14.68;;
67768;SDS011;54569;52.018;5.584;2024-03-08T13:45:08;19.40;;;15.18;;
67768;SDS011;54569;52.018;5.584;2024-03-08T13:47:40;20.52;;;15.73;;
67768;SDS011;54569;52.018;5.584;2024-03-08T13:50:07;17.67;;;14.25;;
67768;SDS011;54569;52.018;5.584;2024-03-08T13:52:37;18.85;;;15.00;;
67768;SDS011;54569;52.018;5.584;2024-03-08T13:55:09;18.77;;;15.50;;
67768;SDS011;54569;52.018;5.584;2024-03-08T13:57:35;19.30;;;15.43;;
67768;SDS011;54569;52.018;5.584;2024-03-08T14:00:01;19.10;;;15.50;;
67768;SDS011;54569;52.018;5.584;2024-03-08T14:02:38;19.70;;;15.77;;
67768;SDS011;54569;52.018;5.584;2024-03-08T14:05:08;18.75;;;15.27;;
67768;SDS011;54569;52.018;5.584;2024-03-08T14:07:36;18.40;;;15.05;;
67768;SDS011;54569;52.018;5.584;2024-03-08T14:10:02;19.35;;;15.13;;
67768;SDS011;54569;52.018;5.584;2024-03-08T14:12:28;20.45;;;14.98;;
67768;SDS011;54569;52.018;5.584;2024-03-08T14:14:55;19.63;;;15.50;;
67768;SDS011;54569;52.018;5.584;2024-03-08T14:17:25;19.27;;;15.35;;
67768;SDS011;54569;52.018;5.584;2024-03-08T14:19:52;17.70;;;14.75;;
67768;SDS011;54569;52.018;5.584;2024-03-08T14:22:19;20.95;;;15.73;;
67768;SDS011;54569;52.018;5.584;2024-03-08T14:24:45;17.98;;;14.93;;
67768;SDS011;54569;52.018;5.584;2024-03-08T14:27:11;21.50;;;15.65;;
67768;SDS011;54569;52.018;5.584;2024-03-08T14:29:37;19.52;;;15.82;;
67768;SDS011;54569;52.018;5.584;2024-03-08T14:32:06;17.15;;;14.27;;
67768;SDS011;54569;52.018;5.584;2024-03-08T14:34:33;17.23;;;14.27;;
67768;SDS011;54569;52.018;5.584;2024-03-08T14:37:00;19.10;;;14.90;;
67768;SDS011;54569;52.018;5.584;2024-03-08T14:39:30;19.27;;;15.43;;